Bf Caroda — V2CV5 — position and weather

sailwx.info

Track history (hours):
 
Tides and Currents Weather Stations Pressure Air Temp Water Temp Dewpoint Dewpoint Depression Visibility Wind Speed Wind Dir Waves Ship Positions

Bf Caroda

Last reported at 2015-Mar-02 23:04 UTC. Time now 2015-Mar-03 04:43 UTC.
Position N 42°31' E 003°07'.

Length 134 m; draft 7.8 m.

Type: Ship (hazmat cat A). MMSI: 304678000.

Date/timePositionNaut miles runAvg speedWind from/ knotsBaromVisibWave heightAir tempDewpointWater temp
2015-Mar-02 23:04N 42°31' E 003°07'0 0.0
2015-Mar-02 21:16N 42°31' E 003°07'0 0.0
2015-Mar-02 20:26N 42°31' E 003°07'0 0.0
2015-Mar-02 18:32N 42°31' E 003°07'0 0.0
2015-Mar-02 17:33N 42°31' E 003°07'0 0.0
2015-Mar-02 16:29N 42°31' E 003°07'0 0.0
2015-Mar-02 15:31N 42°31' E 003°07'0 0.0
2015-Mar-02 14:26N 42°31' E 003°07'0 0.0
2015-Mar-02 13:27N 42°31' E 003°07'0 0.0
2015-Mar-02 12:33N 42°31' E 003°07'0 0.0
2015-Mar-02 11:24N 42°31' E 003°07'0 0.0
2015-Mar-02 10:30N 42°31' E 003°07'0 0.0
2015-Mar-02 09:31N 42°31' E 003°07'0 0.0
2015-Mar-02 08:30N 42°31' E 003°07'0 0.0
2015-Mar-02 07:31N 42°31' E 003°07'0 0.0
2015-Mar-02 06:25N 42°31' E 003°07'43 7.0
2015-Mar-02 00:16N 41°49' E 003°18'1114.7
2015-Mar-01 23:32N 41°41' E 003°08'1514.8
2015-Mar-01 22:33N 41°30' E 002°57'1514.6
2015-Mar-01 21:34N 41°18' E 002°46'1414.2
2015-Mar-01 20:33N 41°06' E 002°35'1414.4
2015-Mar-01 19:33N 40°54' E 002°25'1514.6
2015-Mar-01 18:33N 40°42' E 002°14'1514.7
2015-Mar-01 17:33N 40°29' E 002°03'1514.7
2015-Mar-01 16:33N 40°18' E 001°52'1514.7
2015-Mar-01 15:33N 40°05' E 001°41'1414.5
2015-Mar-01 14:34N 39°53' E 001°31'1414.4
2015-Mar-01 13:33N 39°42' E 001°20'1714.8
2015-Mar-01 12:26N 39°28' E 001°08'1614.7
2015-Mar-01 11:22N 39°15' E 000°56'9215.8
2015-Mar-01 05:34N 37°59' W 000°10'1615.9
2015-Mar-01 04:33N 37°46' W 000°21'1615.8
2015-Mar-01 03:33N 37°32' W 000°32'1615.8
2015-Mar-01 02:32N 37°22' W 000°47'1616.3
2015-Mar-01 01:32N 37°11' W 001°02'21016.1
2015-Feb-28 12:29N 35°60' W 005°08'1718.7
2015-Feb-28 11:33N 35°57' W 005°29'1916.5
2015-Feb-28 10:24N 35°53' W 005°52'  
2015-Feb-24 18:33N 35°57' W 005°33'5 0.2
2015-Feb-23 16:33N 35°59' W 005°27'3 3.3
2015-Feb-23 15:33N 35°60' W 005°24'4 3.5
2015-Feb-23 14:33N 36°01' W 005°19'3 3.4
2015-Feb-23 13:33N 36°01' W 005°15'212 6.8
2015-Feb-22 06:33N 37°12' W 001°06'1514.8
2015-Feb-22 05:32N 37°22' W 000°52'1514.9
2015-Feb-22 04:33N 37°31' W 000°38'1514.6
2015-Feb-22 03:33N 37°43' W 000°26'1515.2
2015-Feb-22 02:32N 37°55' W 000°15'10314.4
2015-Feb-21 19:23N 39°20' E 001°01'1213.8
2015-Feb-21 18:32N 39°29' E 001°11'1514.4
2015-Feb-21 17:29N 39°41' E 001°23'1414.8
2015-Feb-21 16:33N 39°51' E 001°34'1514.7
2015-Feb-21 15:33N 40°03' E 001°46'1514.6
2015-Feb-21 14:33N 40°13' E 001°59'1615.7
2015-Feb-21 13:34N 40°23' E 002°15'1514.6
2015-Feb-21 12:33N 40°31' E 002°31'1414.0
2015-Feb-21 11:33N 40°38' E 002°47'1312.6
2015-Feb-21 10:33N 40°45' E 003°01'2 1.9
2015-Feb-21 09:33N 40°44' E 002°59'2 1.9
2015-Feb-21 08:33N 40°43' E 002°57'2 1.7
2015-Feb-21 07:33N 40°42' E 002°55'1 1.5
2015-Feb-21 06:33N 40°41' E 002°54'1 1.2
2015-Feb-21 05:33N 40°40' E 002°52'1 1.0
2015-Feb-21 04:33N 40°39' E 002°52'1 0.9
2015-Feb-21 03:33N 40°38' E 002°51'8 8.2
2015-Feb-21 02:33N 40°40' E 002°40'10 9.8
2015-Feb-21 01:33N 40°49' E 002°35'1514.8
2015-Feb-21 00:33N 41°01' E 002°48'  
Track history (hours):
 
Tides and Currents Weather Stations Pressure Air Temp Water Temp Dewpoint Dewpoint Depression Visibility Wind Speed Wind Dir Waves Ship Positions

Bf Caroda

Last reported at 2015-Mar-02 23:04 UTC. Time now 2015-Mar-03 04:43 UTC.
Position N 42°31' E 003°07'.

Length 134 m; draft 7.8 m.

Type: Ship (hazmat cat A). MMSI: 304678000.

Date/timePositionNaut miles runAvg speedWind from/ knotsBaromVisibWave heightAir tempDewpointWater temp
2015-Mar-02 23:04N 42°31' E 003°07'0 0.0
2015-Mar-02 21:16N 42°31' E 003°07'0 0.0
2015-Mar-02 20:26N 42°31' E 003°07'0 0.0
2015-Mar-02 18:32N 42°31' E 003°07'0 0.0
2015-Mar-02 17:33N 42°31' E 003°07'0 0.0
2015-Mar-02 16:29N 42°31' E 003°07'0 0.0
2015-Mar-02 15:31N 42°31' E 003°07'0 0.0
2015-Mar-02 14:26N 42°31' E 003°07'0 0.0
2015-Mar-02 13:27N 42°31' E 003°07'0 0.0
2015-Mar-02 12:33N 42°31' E 003°07'0 0.0
2015-Mar-02 11:24N 42°31' E 003°07'0 0.0
2015-Mar-02 10:30N 42°31' E 003°07'0 0.0
2015-Mar-02 09:31N 42°31' E 003°07'0 0.0
2015-Mar-02 08:30N 42°31' E 003°07'0 0.0
2015-Mar-02 07:31N 42°31' E 003°07'0 0.0
2015-Mar-02 06:25N 42°31' E 003°07'43 7.0
2015-Mar-02 00:16N 41°49' E 003°18'1114.7
2015-Mar-01 23:32N 41°41' E 003°08'1514.8
2015-Mar-01 22:33N 41°30' E 002°57'1514.6
2015-Mar-01 21:34N 41°18' E 002°46'1414.2
2015-Mar-01 20:33N 41°06' E 002°35'1414.4
2015-Mar-01 19:33N 40°54' E 002°25'1514.6
2015-Mar-01 18:33N 40°42' E 002°14'1514.7
2015-Mar-01 17:33N 40°29' E 002°03'1514.7
2015-Mar-01 16:33N 40°18' E 001°52'1514.7
2015-Mar-01 15:33N 40°05' E 001°41'1414.5
2015-Mar-01 14:34N 39°53' E 001°31'1414.4
2015-Mar-01 13:33N 39°42' E 001°20'1714.8
2015-Mar-01 12:26N 39°28' E 001°08'1614.7
2015-Mar-01 11:22N 39°15' E 000°56'9215.8
2015-Mar-01 05:34N 37°59' W 000°10'1615.9
2015-Mar-01 04:33N 37°46' W 000°21'1615.8
2015-Mar-01 03:33N 37°32' W 000°32'1615.8
2015-Mar-01 02:32N 37°22' W 000°47'1616.3
2015-Mar-01 01:32N 37°11' W 001°02'21016.1
2015-Feb-28 12:29N 35°60' W 005°08'1718.7
2015-Feb-28 11:33N 35°57' W 005°29'1916.5
2015-Feb-28 10:24N 35°53' W 005°52'  
2015-Feb-24 18:33N 35°57' W 005°33'5 0.2
2015-Feb-23 16:33N 35°59' W 005°27'3 3.3
2015-Feb-23 15:33N 35°60' W 005°24'4 3.5
2015-Feb-23 14:33N 36°01' W 005°19'3 3.4
2015-Feb-23 13:33N 36°01' W 005°15'212 6.8
2015-Feb-22 06:33N 37°12' W 001°06'1514.8
2015-Feb-22 05:32N 37°22' W 000°52'1514.9
2015-Feb-22 04:33N 37°31' W 000°38'1514.6
2015-Feb-22 03:33N 37°43' W 000°26'1515.2
2015-Feb-22 02:32N 37°55' W 000°15'10314.4
2015-Feb-21 19:23N 39°20' E 001°01'1213.8
2015-Feb-21 18:32N 39°29' E 001°11'1514.4
2015-Feb-21 17:29N 39°41' E 001°23'1414.8
2015-Feb-21 16:33N 39°51' E 001°34'1514.7
2015-Feb-21 15:33N 40°03' E 001°46'1514.6
2015-Feb-21 14:33N 40°13' E 001°59'1615.7
2015-Feb-21 13:34N 40°23' E 002°15'1514.6
2015-Feb-21 12:33N 40°31' E 002°31'1414.0
2015-Feb-21 11:33N 40°38' E 002°47'1312.6
2015-Feb-21 10:33N 40°45' E 003°01'2 1.9
2015-Feb-21 09:33N 40°44' E 002°59'2 1.9
2015-Feb-21 08:33N 40°43' E 002°57'2 1.7
2015-Feb-21 07:33N 40°42' E 002°55'1 1.5
2015-Feb-21 06:33N 40°41' E 002°54'1 1.2
2015-Feb-21 05:33N 40°40' E 002°52'1 1.0
2015-Feb-21 04:33N 40°39' E 002°52'1 0.9
2015-Feb-21 03:33N 40°38' E 002°51'8 8.2
2015-Feb-21 02:33N 40°40' E 002°40'10 9.8
2015-Feb-21 01:33N 40°49' E 002°35'1514.8
2015-Feb-21 00:33N 41°01' E 002°48'  

Dump ship's entire track history